sensor_id;sensor_type;location;lat;lon;timestamp;pressure;altitude;pressure_sealevel;temperature;humidity
68807;BME280;55800;54.272;18.558;2023-01-28T00:01:59;102064.59;;;0.51;72.29
68807;BME280;55800;54.272;18.558;2023-01-28T00:04:30;102067.25;;;0.52;71.97
68807;BME280;55800;54.272;18.558;2023-01-28T00:06:59;102063.69;;;0.50;72.19
68807;BME280;55800;54.272;18.558;2023-01-28T00:09:28;102066.25;;;0.49;72.26
68807;BME280;55800;54.272;18.558;2023-01-28T00:11:57;102064.59;;;0.51;71.96
68807;BME280;55800;54.272;18.558;2023-01-28T00:14:27;102068.94;;;0.50;72.07
68807;BME280;55800;54.272;18.558;2023-01-28T00:16:57;102060.25;;;0.53;71.72
68807;BME280;55800;54.272;18.558;2023-01-28T00:19:26;102067.25;;;0.52;71.53
68807;BME280;55800;54.272;18.558;2023-01-28T00:21:57;102063.59;;;0.47;71.99
68807;BME280;55800;54.272;18.558;2023-01-28T00:24:26;102060.00;;;0.42;72.17
68807;BME280;55800;54.272;18.558;2023-01-28T00:26:55;102064.38;;;0.42;72.03
68807;BME280;55800;54.272;18.558;2023-01-28T00:29:24;102063.44;;;0.40;72.23
68807;BME280;55800;54.272;18.558;2023-01-28T00:31:54;102060.81;;;0.40;72.27
68807;BME280;55800;54.272;18.558;2023-01-28T00:34:23;102058.13;;;0.38;72.30
68807;BME280;55800;54.272;18.558;2023-01-28T00:36:52;102059.03;;;0.39;72.25
68807;BME280;55800;54.272;18.558;2023-01-28T00:39:26;102049.38;;;0.38;72.27
68807;BME280;55800;54.272;18.558;2023-01-28T00:41:56;102060.75;;;0.38;72.26
68807;BME280;55800;54.272;18.558;2023-01-28T00:44:25;102055.50;;;0.38;72.15
68807;BME280;55800;54.272;18.558;2023-01-28T00:46:54;102059.03;;;0.39;72.29
68807;BME280;55800;54.272;18.558;2023-01-28T00:49:23;102060.75;;;0.38;72.15
68807;BME280;55800;54.272;18.558;2023-01-28T00:51:53;102059.84;;;0.36;72.35
68807;BME280;55800;54.272;18.558;2023-01-28T00:54:22;102061.59;;;0.36;72.36
68807;BME280;55800;54.272;18.558;2023-01-28T00:56:53;102055.47;;;0.37;72.22
68807;BME280;55800;54.272;18.558;2023-01-28T00:59:22;102050.22;;;0.37;72.39
68807;BME280;55800;54.272;18.558;2023-01-28T01:01:52;102049.31;;;0.36;72.31
68807;BME280;55800;54.272;18.558;2023-01-28T01:04:21;102053.72;;;0.36;72.50
68807;BME280;55800;54.272;18.558;2023-01-28T01:06:54;102043.19;;;0.36;72.18
68807;BME280;55800;54.272;18.558;2023-01-28T01:09:23;102049.38;;;0.38;71.36
68807;BME280;55800;54.272;18.558;2023-01-28T01:11:54;102045.75;;;0.34;72.03
68807;BME280;55800;54.272;18.558;2023-01-28T01:14:23;102045.72;;;0.31;72.25
68807;BME280;55800;54.272;18.558;2023-01-28T01:16:52;102050.09;;;0.31;72.34
68807;BME280;55800;54.272;18.558;2023-01-28T01:19:21;102044.81;;;0.31;72.34
68807;BME280;55800;54.272;18.558;2023-01-28T01:21:51;102049.25;;;0.32;72.26
68807;BME280;55800;54.272;18.558;2023-01-28T01:24:20;102053.56;;;0.30;72.17
68807;BME280;55800;54.272;18.558;2023-01-28T01:26:50;102045.66;;;0.30;71.93
68807;BME280;55800;54.272;18.558;2023-01-28T01:29:22;102052.72;;;0.31;71.57
68807;BME280;55800;54.272;18.558;2023-01-28T01:31:52;102056.16;;;0.28;72.26
68807;BME280;55800;54.272;18.558;2023-01-28T01:34:22;102066.66;;;0.27;72.39
68807;BME280;55800;54.272;18.558;2023-01-28T01:36:51;102060.47;;;0.25;72.46
68807;BME280;55800;54.272;18.558;2023-01-28T01:39:20;102052.56;;;0.23;72.45
68807;BME280;55800;54.272;18.558;2023-01-28T01:41:50;102058.69;;;0.24;72.46
68807;BME280;55800;54.272;18.558;2023-01-28T01:44:56;102053.47;;;0.25;72.46
68807;BME280;55800;54.272;18.558;2023-01-28T01:47:32;102056.03;;;0.24;72.52
68807;BME280;55800;54.272;18.558;2023-01-28T01:50:08;102048.16;;;0.24;72.51
68807;BME280;55800;54.272;18.558;2023-01-28T01:52:40;102041.16;;;0.24;71.73
68807;BME280;55800;54.272;18.558;2023-01-28T01:55:13;102041.13;;;0.23;71.71
68807;BME280;55800;54.272;18.558;2023-01-28T01:57:46;102041.13;;;0.23;72.32
68807;BME280;55800;54.272;18.558;2023-01-28T02:00:18;102048.13;;;0.22;72.44
68807;BME280;55800;54.272;18.558;2023-01-28T02:02:48;102055.13;;;0.22;72.50
68807;BME280;55800;54.272;18.558;2023-01-28T02:05:20;102044.59;;;0.22;72.40
68807;BME280;55800;54.272;18.558;2023-01-28T02:07:52;102040.25;;;0.22;72.27
68807;BME280;55800;54.272;18.558;2023-01-28T02:10:45;102053.38;;;0.21;72.36
68807;BME280;55800;54.272;18.558;2023-01-28T02:13:16;102057.81;;;0.23;72.52
68807;BME280;55800;54.272;18.558;2023-01-28T02:15:48;102049.94;;;0.23;72.29
68807;BME280;55800;54.272;18.558;2023-01-28T02:18:17;102035.88;;;0.23;72.50
68807;BME280;55800;54.272;18.558;2023-01-28T02:21:09;102048.16;;;0.24;72.38
68807;BME280;55800;54.272;18.558;2023-01-28T02:23:54;102035.84;;;0.21;72.07
68807;BME280;55800;54.272;18.558;2023-01-28T02:29:40;102049.84;;;0.20;72.52
68807;BME280;55800;54.272;18.558;2023-01-28T02:32:16;102034.97;;;0.21;72.46
68807;BME280;55800;54.272;18.558;2023-01-28T02:34:51;102038.50;;;0.21;72.41
68807;BME280;55800;54.272;18.558;2023-01-28T02:37:26;102039.34;;;0.22;72.55
68807;BME280;55800;54.272;18.558;2023-01-28T02:40:02;102033.22;;;0.21;72.50
68807;BME280;55800;54.272;18.558;2023-01-28T02:42:35;102034.97;;;0.22;72.53
68807;BME280;55800;54.272;18.558;2023-01-28T02:45:14;102038.50;;;0.23;72.66
68807;BME280;55800;54.272;18.558;2023-01-28T02:47:45;102035.88;;;0.23;72.52
68807;BME280;55800;54.272;18.558;2023-01-28T02:50:33;102035.88;;;0.23;72.36
68807;BME280;55800;54.272;18.558;2023-01-28T02:53:18;102029.75;;;0.24;72.48
68807;BME280;55800;54.272;18.558;2023-01-28T02:56:19;102033.28;;;0.24;72.52
68807;BME280;55800;54.272;18.558;2023-01-28T02:59:02;102035.94;;;0.26;72.59
68807;BME280;55800;54.272;18.558;2023-01-28T03:01:52;102034.16;;;0.25;72.53
68807;BME280;55800;54.272;18.558;2023-01-28T03:04:29;102041.19;;;0.26;72.56
68807;BME280;55800;54.272;18.558;2023-01-28T03:07:06;102031.56;;;0.26;72.51
68807;BME280;55800;54.272;18.558;2023-01-28T03:09:39;102035.94;;;0.26;72.47
68807;BME280;55800;54.272;18.558;2023-01-28T03:12:12;102037.72;;;0.27;72.59
68807;BME280;55800;54.272;18.558;2023-01-28T03:15:02;102035.09;;;0.27;72.50
68807;BME280;55800;54.272;18.558;2023-01-28T03:17:56;102032.47;;;0.27;72.44
68807;BME280;55800;54.272;18.558;2023-01-28T03:20:49;102026.31;;;0.26;72.52
68807;BME280;55800;54.272;18.558;2023-01-28T03:23:46;102027.19;;;0.27;72.60
68807;BME280;55800;54.272;18.558;2023-01-28T03:26:37;102017.56;;;0.27;72.48
68807;BME280;55800;54.272;18.558;2023-01-28T03:29:31;102025.41;;;0.26;72.53
68807;BME280;55800;54.272;18.558;2023-01-28T03:32:21;102027.19;;;0.25;72.69
68807;BME280;55800;54.272;18.558;2023-01-28T03:35:11;102022.84;;;0.27;72.57
68807;BME280;55800;54.272;18.558;2023-01-28T03:37:59;102015.81;;;0.28;72.54
68807;BME280;55800;54.272;18.558;2023-01-28T03:40:49;102017.56;;;0.27;72.44
68807;BME280;55800;54.272;18.558;2023-01-28T03:43:19;102023.69;;;0.28;72.46
68807;BME280;55800;54.272;18.558;2023-01-28T03:45:50;102013.19;;;0.28;72.55
68807;BME280;55800;54.272;18.558;2023-01-28T03:48:20;102016.69;;;0.27;72.68
68807;BME280;55800;54.272;18.558;2023-01-28T03:50:52;102011.41;;;0.27;72.49
68807;BME280;55800;54.272;18.558;2023-01-28T03:53:24;102008.78;;;0.27;72.50
68807;BME280;55800;54.272;18.558;2023-01-28T03:55:55;102022.84;;;0.27;72.59
68807;BME280;55800;54.272;18.558;2023-01-28T03:58:25;102020.19;;;0.27;72.56
68807;BME280;55800;54.272;18.558;2023-01-28T04:01:15;102021.94;;;0.27;72.57
68807;BME280;55800;54.272;18.558;2023-01-28T04:03:44;102010.53;;;0.26;72.60
68807;BME280;55800;54.272;18.558;2023-01-28T04:06:19;102021.03;;;0.26;72.50
68807;BME280;55800;54.272;18.558;2023-01-28T04:08:58;102011.41;;;0.27;72.65
68807;BME280;55800;54.272;18.558;2023-01-28T04:11:49;102021.06;;;0.28;72.48
68807;BME280;55800;54.272;18.558;2023-01-28T04:14:25;102016.69;;;0.27;72.24
68807;BME280;55800;54.272;18.558;2023-01-28T04:17:07;102020.19;;;0.27;72.31
68807;BME280;55800;54.272;18.558;2023-01-28T04:19:38;102009.63;;;0.26;72.56
68807;BME280;55800;54.272;18.558;2023-01-28T04:22:09;102013.97;;;0.24;72.58
68807;BME280;55800;54.272;18.558;2023-01-28T04:24:41;102010.47;;;0.23;72.46
68807;BME280;55800;54.272;18.558;2023-01-28T04:27:11;102015.72;;;0.23;72.61
68807;BME280;55800;54.272;18.558;2023-01-28T04:29:40;102014.84;;;0.23;72.49
68807;BME280;55800;54.272;18.558;2023-01-28T04:32:28;102020.94;;;0.22;72.66
68807;BME280;55800;54.272;18.558;2023-01-28T04:35:09;102016.53;;;0.21;72.65
68807;BME280;55800;54.272;18.558;2023-01-28T04:37:58;102018.38;;;0.23;72.64
68807;BME280;55800;54.272;18.558;2023-01-28T04:40:37;102019.22;;;0.24;72.56
68807;BME280;55800;54.272;18.558;2023-01-28T04:43:12;102023.63;;;0.23;72.67
68807;BME280;55800;54.272;18.558;2023-01-28T04:45:50;102024.47;;;0.24;72.65
68807;BME280;55800;54.272;18.558;2023-01-28T04:48:29;102023.66;;;0.25;72.61
68807;BME280;55800;54.272;18.558;2023-01-28T04:51:24;102022.72;;;0.23;72.55
68807;BME280;55800;54.272;18.558;2023-01-28T04:54:27;102012.22;;;0.23;72.88
68807;BME280;55800;54.272;18.558;2023-01-28T04:56:59;102010.41;;;0.22;72.75
68807;BME280;55800;54.272;18.558;2023-01-28T04:59:29;102013.94;;;0.22;72.72
68807;BME280;55800;54.272;18.558;2023-01-28T05:01:58;102018.31;;;0.22;72.74
68807;BME280;55800;54.272;18.558;2023-01-28T05:04:28;102020.94;;;0.22;72.60
68807;BME280;55800;54.272;18.558;2023-01-28T05:06:57;102026.25;;;0.23;72.78
68807;BME280;55800;54.272;18.558;2023-01-28T05:09:33;102017.47;;;0.23;72.51
68807;BME280;55800;54.272;18.558;2023-01-28T05:12:03;102021.84;;;0.24;72.66
68807;BME280;55800;54.272;18.558;2023-01-28T05:14:34;102026.28;;;0.25;72.74
68807;BME280;55800;54.272;18.558;2023-01-28T05:17:06;102018.38;;;0.25;72.69
68807;BME280;55800;54.272;18.558;2023-01-28T05:19:35;102023.66;;;0.25;72.63
68807;BME280;55800;54.272;18.558;2023-01-28T05:22:10;102025.41;;;0.26;72.74
68807;BME280;55800;54.272;18.558;2023-01-28T05:24:46;102023.66;;;0.25;72.48
68807;BME280;55800;54.272;18.558;2023-01-28T05:27:15;102034.16;;;0.25;72.69
68807;BME280;55800;54.272;18.558;2023-01-28T05:29:45;102035.94;;;0.26;72.49
68807;BME280;55800;54.272;18.558;2023-01-28T05:32:15;102034.16;;;0.25;72.65
68807;BME280;55800;54.272;18.558;2023-01-28T05:34:45;102039.44;;;0.25;72.70
68807;BME280;55800;54.272;18.558;2023-01-28T05:37:14;102039.44;;;0.25;72.77
68807;BME280;55800;54.272;18.558;2023-01-28T05:39:46;102032.38;;;0.24;72.77
68807;BME280;55800;54.272;18.558;2023-01-28T05:42:15;102034.16;;;0.25;72.76
68807;BME280;55800;54.272;18.558;2023-01-28T05:44:49;102016.59;;;0.24;72.69
68807;BME280;55800;54.272;18.558;2023-01-28T05:47:34;102031.50;;;0.23;72.80
68807;BME280;55800;54.272;18.558;2023-01-28T05:50:22;102025.34;;;0.23;72.59
68807;BME280;55800;54.272;18.558;2023-01-28T05:53:11;102021.84;;;0.22;72.78
68807;BME280;55800;54.272;18.558;2023-01-28T05:55:47;102032.38;;;0.24;72.71
68807;BME280;55800;54.272;18.558;2023-01-28T05:58:17;102023.56;;;0.22;72.85
68807;BME280;55800;54.272;18.558;2023-01-28T06:00:47;102036.78;;;0.23;72.70
68807;BME280;55800;54.272;18.558;2023-01-28T06:03:20;102035.94;;;0.26;72.60
68807;BME280;55800;54.272;18.558;2023-01-28T06:05:50;102039.44;;;0.25;72.44
68807;BME280;55800;54.272;18.558;2023-01-28T06:08:19;102021.03;;;0.25;72.71
68807;BME280;55800;54.272;18.558;2023-01-28T06:10:50;102020.16;;;0.26;72.65
68807;BME280;55800;54.272;18.558;2023-01-28T06:13:20;102016.59;;;0.24;72.66
68807;BME280;55800;54.272;18.558;2023-01-28T06:16:14;102028.00;;;0.23;72.77
68807;BME280;55800;54.272;18.558;2023-01-28T06:19:02;102026.19;;;0.22;72.90
68807;BME280;55800;54.272;18.558;2023-01-28T06:21:32;102016.53;;;0.21;73.03
68807;BME280;55800;54.272;18.558;2023-01-28T06:24:01;102021.75;;;0.19;72.77
68807;BME280;55800;54.272;18.558;2023-01-28T06:26:32;102027.97;;;0.21;72.88
68807;BME280;55800;54.272;18.558;2023-01-28T06:29:01;102025.34;;;0.23;72.89
68807;BME280;55800;54.272;18.558;2023-01-28T06:31:30;102025.34;;;0.21;72.79
68807;BME280;55800;54.272;18.558;2023-01-28T06:34:00;102026.16;;;0.20;72.83
68807;BME280;55800;54.272;18.558;2023-01-28T06:36:29;102014.75;;;0.20;72.76
68807;BME280;55800;54.272;18.558;2023-01-28T06:38:59;102020.00;;;0.20;72.96
68807;BME280;55800;54.272;18.558;2023-01-28T06:41:28;102026.16;;;0.20;72.87
68807;BME280;55800;54.272;18.558;2023-01-28T06:43:59;102028.81;;;0.22;72.75
68807;BME280;55800;54.272;18.558;2023-01-28T06:46:29;102027.09;;;0.22;72.72
68807;BME280;55800;54.272;18.558;2023-01-28T06:48:58;102036.78;;;0.23;72.52
68807;BME280;55800;54.272;18.558;2023-01-28T06:51:27;102027.97;;;0.21;72.45
68807;BME280;55800;54.272;18.558;2023-01-28T06:53:56;102027.91;;;0.20;72.40
68807;BME280;55800;54.272;18.558;2023-01-28T06:56:26;102033.13;;;0.18;72.70
68807;BME280;55800;54.272;18.558;2023-01-28T06:58:55;102033.13;;;0.17;72.85
68807;BME280;55800;54.272;18.558;2023-01-28T07:01:26;102034.88;;;0.18;72.84
68807;BME280;55800;54.272;18.558;2023-01-28T07:03:55;102034.88;;;0.18;72.77
68807;BME280;55800;54.272;18.558;2023-01-28T07:06:25;102035.75;;;0.17;72.90
68807;BME280;55800;54.272;18.558;2023-01-28T07:08:54;102036.59;;;0.17;72.94
68807;BME280;55800;54.272;18.558;2023-01-28T07:11:24;102032.25;;;0.18;72.84
68807;BME280;55800;54.272;18.558;2023-01-28T07:13:53;102028.78;;;0.19;72.92
68807;BME280;55800;54.272;18.558;2023-01-28T07:16:22;102045.38;;;0.18;72.95
68807;BME280;55800;54.272;18.558;2023-01-28T07:18:52;102046.31;;;0.20;73.09
68807;BME280;55800;54.272;18.558;2023-01-28T07:21:22;102040.25;;;0.22;72.96
68807;BME280;55800;54.272;18.558;2023-01-28T07:23:51;102039.34;;;0.22;73.01
68807;BME280;55800;54.272;18.558;2023-01-28T07:26:21;102035.88;;;0.23;73.06
68807;BME280;55800;54.272;18.558;2023-01-28T07:28:50;102039.44;;;0.25;73.07
68807;BME280;55800;54.272;18.558;2023-01-28T07:31:19;102037.72;;;0.27;73.04
68807;BME280;55800;54.272;18.558;2023-01-28T07:33:48;102041.28;;;0.29;72.96
68807;BME280;55800;54.272;18.558;2023-01-28T07:36:19;102042.16;;;0.29;73.05
68807;BME280;55800;54.272;18.558;2023-01-28T07:38:48;102039.59;;;0.32;73.06
68807;BME280;55800;54.272;18.558;2023-01-28T07:41:18;102042.22;;;0.32;72.98
68807;BME280;55800;54.272;18.558;2023-01-28T07:43:47;102048.38;;;0.33;73.09
68807;BME280;55800;54.272;18.558;2023-01-28T07:46:17;102046.63;;;0.32;73.13
68807;BME280;55800;54.272;18.558;2023-01-28T07:48:46;102051.91;;;0.35;73.18
68807;BME280;55800;54.272;18.558;2023-01-28T07:51:15;102054.56;;;0.36;73.08
68807;BME280;55800;54.272;18.558;2023-01-28T07:53:46;102053.75;;;0.39;73.02
68807;BME280;55800;54.272;18.558;2023-01-28T07:56:15;102061.66;;;0.39;73.22
68807;BME280;55800;54.272;18.558;2023-01-28T07:58:44;102044.13;;;0.39;73.14
68807;BME280;55800;54.272;18.558;2023-01-28T08:01:17;102044.22;;;0.42;73.17
68807;BME280;55800;54.272;18.558;2023-01-28T08:03:46;102056.53;;;0.45;73.11
68807;BME280;55800;54.272;18.558;2023-01-28T08:06:16;102046.91;;;0.47;73.06
68807;BME280;55800;54.272;18.558;2023-01-28T08:08:46;102040.81;;;0.48;73.18
68807;BME280;55800;54.272;18.558;2023-01-28T08:11:16;102044.38;;;0.50;73.37
68807;BME280;55800;54.272;18.558;2023-01-28T08:13:45;102039.19;;;0.53;73.18
68807;BME280;55800;54.272;18.558;2023-01-28T08:16:15;102034.84;;;0.55;73.17
68807;BME280;55800;54.272;18.558;2023-01-28T08:18:44;102045.41;;;0.58;73.41
68807;BME280;55800;54.272;18.558;2023-01-28T08:21:13;102042.81;;;0.59;73.14
68807;BME280;55800;54.272;18.558;2023-01-28T08:23:42;102032.34;;;0.61;73.03
68807;BME280;55800;54.272;18.558;2023-01-28T08:26:13;102031.53;;;0.65;73.05
68807;BME280;55800;54.272;18.558;2023-01-28T08:28:42;102029.81;;;0.65;73.11
68807;BME280;55800;54.272;18.558;2023-01-28T08:31:12;102028.03;;;0.66;73.12
68807;BME280;55800;54.272;18.558;2023-01-28T08:33:41;102036.00;;;0.69;73.13
68807;BME280;55800;54.272;18.558;2023-01-28T08:36:10;102037.81;;;0.71;73.11
68807;BME280;55800;54.272;18.558;2023-01-28T08:38:39;102043.13;;;0.74;73.23
68807;BME280;55800;54.272;18.558;2023-01-28T08:41:10;102046.69;;;0.76;73.08
68807;BME280;55800;54.272;18.558;2023-01-28T08:43:40;102044.97;;;0.78;73.20
68807;BME280;55800;54.272;18.558;2023-01-28T08:46:10;102048.56;;;0.82;73.16
68807;BME280;55800;54.272;18.558;2023-01-28T08:48:39;102052.97;;;0.83;73.22
68807;BME280;55800;54.272;18.558;2023-01-28T08:51:09;102050.41;;;0.86;73.37
68807;BME280;55800;54.272;18.558;2023-01-28T08:53:38;102052.22;;;0.89;73.32
68807;BME280;55800;54.272;18.558;2023-01-28T08:56:07;102058.34;;;0.89;73.05
68807;BME280;55800;54.272;18.558;2023-01-28T08:58:36;102056.59;;;0.90;73.21
68807;BME280;55800;54.272;18.558;2023-01-28T09:01:07;102055.81;;;0.94;73.15
68807;BME280;55800;54.272;18.558;2023-01-28T09:03:36;102054.06;;;0.94;73.08
68807;BME280;55800;54.272;18.558;2023-01-28T09:06:06;102056.72;;;0.96;73.09
68807;BME280;55800;54.272;18.558;2023-01-28T09:08:35;102047.09;;;0.98;73.28
68807;BME280;55800;54.272;18.558;2023-01-28T09:11:05;102060.38;;;1.02;72.91
68807;BME280;55800;54.272;18.558;2023-01-28T09:13:35;102056.91;;;1.03;73.18
68807;BME280;55800;54.272;18.558;2023-01-28T09:16:06;102048.13;;;1.04;73.25
68807;BME280;55800;54.272;18.558;2023-01-28T09:18:36;102048.19;;;1.07;73.09
68807;BME280;55800;54.272;18.558;2023-01-28T09:21:06;102054.41;;;1.11;72.85
68807;BME280;55800;54.272;18.558;2023-01-28T09:23:36;102054.38;;;1.09;73.00
68807;BME280;55800;54.272;18.558;2023-01-28T09:26:06;102057.03;;;1.11;73.07
68807;BME280;55800;54.272;18.558;2023-01-28T09:28:36;102043.94;;;1.14;73.08
68807;BME280;55800;54.272;18.558;2023-01-28T09:31:08;102057.13;;;1.15;73.01
68807;BME280;55800;54.272;18.558;2023-01-28T09:33:39;102064.22;;;1.19;73.00
68807;BME280;55800;54.272;18.558;2023-01-28T09:36:10;102057.22;;;1.21;73.15
68807;BME280;55800;54.272;18.558;2023-01-28T09:38:39;102059.03;;;1.24;73.21
68807;BME280;55800;54.272;18.558;2023-01-28T09:41:24;102064.41;;;1.30;73.26
68807;BME280;55800;54.272;18.558;2023-01-28T09:44:04;102069.75;;;1.31;73.14
68807;BME280;55800;54.272;18.558;2023-01-28T09:46:36;102059.22;;;1.33;73.14
68807;BME280;55800;54.272;18.558;2023-01-28T09:49:15;102055.75;;;1.35;72.99
68807;BME280;55800;54.272;18.558;2023-01-28T09:51:49;102048.78;;;1.39;72.87
68807;BME280;55800;54.272;18.558;2023-01-28T09:54:26;102051.50;;;1.42;72.85
68807;BME280;55800;54.272;18.558;2023-01-28T09:57:02;102056.81;;;1.45;73.02
68807;BME280;55800;54.272;18.558;2023-01-28T09:59:34;102050.69;;;1.47;72.97
68807;BME280;55800;54.272;18.558;2023-01-28T10:02:25;102037.63;;;1.53;72.82
68807;BME280;55800;54.272;18.558;2023-01-28T10:05:06;102040.31;;;1.56;72.68
68807;BME280;55800;54.272;18.558;2023-01-28T10:07:48;102039.50;;;1.59;72.80
68807;BME280;55800;54.272;18.558;2023-01-28T10:10:27;102050.97;;;1.61;72.71
68807;BME280;55800;54.272;18.558;2023-01-28T10:13:09;102046.59;;;1.63;72.48
68807;BME280;55800;54.272;18.558;2023-01-28T10:15:58;102033.44;;;1.65;72.51
68807;BME280;55800;54.272;18.558;2023-01-28T10:18:38;102040.47;;;1.66;72.35
68807;BME280;55800;54.272;18.558;2023-01-28T10:21:14;102031.78;;;1.70;72.36
68807;BME280;55800;54.272;18.558;2023-01-28T10:23:51;102029.19;;;1.74;71.96
68807;BME280;55800;54.272;18.558;2023-01-28T10:26:25;102030.13;;;1.78;72.48
68807;BME280;55800;54.272;18.558;2023-01-28T10:29:02;102029.31;;;1.80;72.03
68807;BME280;55800;54.272;18.558;2023-01-28T10:31:36;102021.41;;;1.82;72.52
68807;BME280;55800;54.272;18.558;2023-01-28T10:34:11;102025.78;;;1.81;72.12
68807;BME280;55800;54.272;18.558;2023-01-28T10:36:42;102017.06;;;1.84;72.40
68807;BME280;55800;54.272;18.558;2023-01-28T10:39:12;102019.72;;;1.87;72.86
68807;BME280;55800;54.272;18.558;2023-01-28T10:41:42;102017.13;;;1.88;72.60
68807;BME280;55800;54.272;18.558;2023-01-28T10:44:30;102017.16;;;1.91;71.84
68807;BME280;55800;54.272;18.558;2023-01-28T10:47:03;102010.16;;;1.93;72.77
68807;BME280;55800;54.272;18.558;2023-01-28T10:49:43;102007.59;;;1.98;72.59
68807;BME280;55800;54.272;18.558;2023-01-28T10:52:14;102007.66;;;2.01;71.93
68807;BME280;55800;54.272;18.558;2023-01-28T10:54:44;102004.09;;;1.99;71.30
68807;BME280;55800;54.272;18.558;2023-01-28T10:57:16;102000.59;;;2.00;72.02
68807;BME280;55800;54.272;18.558;2023-01-28T10:59:47;101996.19;;;1.99;71.15
68807;BME280;55800;54.272;18.558;2023-01-28T11:02:25;101995.28;;;1.97;71.13
68807;BME280;55800;54.272;18.558;2023-01-28T11:05:04;101995.38;;;2.03;71.76
68807;BME280;55800;54.272;18.558;2023-01-28T11:07:34;101992.72;;;2.01;70.79
68807;BME280;55800;54.272;18.558;2023-01-28T11:10:26;102000.63;;;2.01;71.02
68807;BME280;55800;54.272;18.558;2023-01-28T11:13:00;102000.59;;;2.00;71.89
68807;BME280;55800;54.272;18.558;2023-01-28T11:15:30;101988.34;;;2.05;71.67
68807;BME280;55800;54.272;18.558;2023-01-28T11:18:01;101998.94;;;2.08;71.30
68807;BME280;55800;54.272;18.558;2023-01-28T11:20:36;101997.19;;;2.07;70.96
68807;BME280;55800;54.272;18.558;2023-01-28T11:23:06;102001.56;;;2.05;71.07
68807;BME280;55800;54.272;18.558;2023-01-28T11:25:45;101981.34;;;2.05;71.80
68807;BME280;55800;54.272;18.558;2023-01-28T11:28:17;101985.75;;;2.08;71.36
68807;BME280;55800;54.272;18.558;2023-01-28T11:30:51;101988.38;;;2.06;71.19
68807;BME280;55800;54.272;18.558;2023-01-28T11:33:23;101983.13;;;2.08;71.63
68807;BME280;55800;54.272;18.558;2023-01-28T11:36:06;101996.34;;;2.09;71.69
68807;BME280;55800;54.272;18.558;2023-01-28T11:38:35;101975.25;;;2.09;72.03
68807;BME280;55800;54.272;18.558;2023-01-28T11:41:15;101972.63;;;2.11;70.98
68807;BME280;55800;54.272;18.558;2023-01-28T11:43:44;101974.34;;;2.10;71.54
68807;BME280;55800;54.272;18.558;2023-01-28T11:46:24;101965.59;;;2.11;71.91
68807;BME280;55800;54.272;18.558;2023-01-28T11:49:05;101963.88;;;2.15;71.56
68807;BME280;55800;54.272;18.558;2023-01-28T11:51:45;101954.22;;;2.15;71.39
68807;BME280;55800;54.272;18.558;2023-01-28T11:54:30;101947.22;;;2.17;71.77
68807;BME280;55800;54.272;18.558;2023-01-28T11:57:15;101955.13;;;2.19;71.90
68807;BME280;55800;54.272;18.558;2023-01-28T12:00:01;101961.38;;;2.25;70.93
68807;BME280;55800;54.272;18.558;2023-01-28T12:02:48;101956.09;;;2.22;71.61
68807;BME280;55800;54.272;18.558;2023-01-28T12:05:41;101949.06;;;2.26;71.76
68807;BME280;55800;54.272;18.558;2023-01-28T12:08:21;101958.75;;;2.25;71.86
68807;BME280;55800;54.272;18.558;2023-01-28T12:11:08;101955.25;;;2.26;72.14
68807;BME280;55800;54.272;18.558;2023-01-28T12:13:51;101954.44;;;2.32;71.56
68807;BME280;55800;54.272;18.558;2023-01-28T12:16:47;101953.59;;;2.33;71.97
68807;BME280;55800;54.272;18.558;2023-01-28T12:23:00;101925.44;;;2.35;71.77
68807;BME280;55800;54.272;18.558;2023-01-28T12:25:42;101928.13;;;2.38;71.94
68807;BME280;55800;54.272;18.558;2023-01-28T12:28:25;101929.00;;;2.38;71.92
68807;BME280;55800;54.272;18.558;2023-01-28T12:31:13;101927.25;;;2.39;71.76
68807;BME280;55800;54.272;18.558;2023-01-28T12:33:57;101919.34;;;2.41;71.76
68807;BME280;55800;54.272;18.558;2023-01-28T12:36:40;101921.09;;;2.40;71.44
68807;BME280;55800;54.272;18.558;2023-01-28T12:39:21;101927.25;;;2.39;71.89
68807;BME280;55800;54.272;18.558;2023-01-28T12:42:02;101911.44;;;2.39;71.42
68807;BME280;55800;54.272;18.558;2023-01-28T12:44:37;101921.09;;;2.38;71.69
68807;BME280;55800;54.272;18.558;2023-01-28T12:47:13;101923.72;;;2.38;71.85
68807;BME280;55800;54.272;18.558;2023-01-28T12:49:48;101917.59;;;2.40;71.65
68807;BME280;55800;54.272;18.558;2023-01-28T12:52:24;101913.19;;;2.40;71.04
68807;BME280;55800;54.272;18.558;2023-01-28T12:55:00;101900.88;;;2.39;71.21
68807;BME280;55800;54.272;18.558;2023-01-28T12:57:37;101899.13;;;2.40;71.28
68807;BME280;55800;54.272;18.558;2023-01-28T13:00:18;101897.34;;;2.38;71.54
68807;BME280;55800;54.272;18.558;2023-01-28T13:02:59;101909.63;;;2.38;71.57
68807;BME280;55800;54.272;18.558;2023-01-28T13:05:33;101896.44;;;2.38;71.43
68807;BME280;55800;54.272;18.558;2023-01-28T13:08:14;101891.16;;;2.38;71.55
68807;BME280;55800;54.272;18.558;2023-01-28T13:10:46;101888.53;;;2.38;71.61
68807;BME280;55800;54.272;18.558;2023-01-28T13:13:21;101882.41;;;2.42;71.59
68807;BME280;55800;54.272;18.558;2023-01-28T13:15:56;101868.34;;;2.42;71.63
68807;BME280;55800;54.272;18.558;2023-01-28T13:18:32;101871.84;;;2.42;71.53
68807;BME280;55800;54.272;18.558;2023-01-28T13:21:02;101865.72;;;2.43;70.81
68807;BME280;55800;54.272;18.558;2023-01-28T13:23:39;101867.53;;;2.47;71.19
68807;BME280;55800;54.272;18.558;2023-01-28T13:26:24;101863.09;;;2.45;71.12
68807;BME280;55800;54.272;18.558;2023-01-28T13:29:19;101854.28;;;2.44;71.41
68807;BME280;55800;54.272;18.558;2023-01-28T13:31:50;101851.63;;;2.44;71.59
68807;BME280;55800;54.272;18.558;2023-01-28T13:34:41;101853.44;;;2.45;70.85
68807;BME280;55800;54.272;18.558;2023-01-28T13:37:23;101848.19;;;2.50;70.67